sensor_id;sensor_type;location;lat;lon;timestamp;P1;durP1;ratioP1;P2;durP2;ratioP2
50104;SDS011;47690;39.202;-77.198;2023-11-21T00:00:24;4.43;;;2.40;;
50104;SDS011;47690;39.202;-77.198;2023-11-21T00:02:53;2.60;;;2.30;;
50104;SDS011;47690;39.202;-77.198;2023-11-21T00:05:23;2.95;;;2.20;;
50104;SDS011;47690;39.202;-77.198;2023-11-21T00:07:54;3.13;;;2.20;;
50104;SDS011;47690;39.202;-77.198;2023-11-21T00:10:24;3.80;;;2.30;;
50104;SDS011;47690;39.202;-77.198;2023-11-21T00:12:54;2.92;;;2.10;;
50104;SDS011;47690;39.202;-77.198;2023-11-21T00:15:23;3.90;;;2.30;;
50104;SDS011;47690;39.202;-77.198;2023-11-21T00:17:53;4.30;;;2.20;;
50104;SDS011;47690;39.202;-77.198;2023-11-21T00:20:23;3.22;;;2.05;;
50104;SDS011;47690;39.202;-77.198;2023-11-21T00:23:11;2.30;;;1.92;;
50104;SDS011;47690;39.202;-77.198;2023-11-21T00:25:41;3.38;;;2.28;;
50104;SDS011;47690;39.202;-77.198;2023-11-21T00:28:10;3.03;;;2.30;;
50104;SDS011;47690;39.202;-77.198;2023-11-21T00:30:38;3.03;;;2.17;;
50104;SDS011;47690;39.202;-77.198;2023-11-21T00:33:07;2.45;;;2.25;;
50104;SDS011;47690;39.202;-77.198;2023-11-21T00:35:36;4.10;;;2.28;;
50104;SDS011;47690;39.202;-77.198;2023-11-21T00:38:05;3.15;;;2.25;;
50104;SDS011;47690;39.202;-77.198;2023-11-21T00:40:33;3.20;;;2.22;;
50104;SDS011;47690;39.202;-77.198;2023-11-21T00:43:01;2.80;;;2.25;;
50104;SDS011;47690;39.202;-77.198;2023-11-21T00:45:32;3.30;;;2.40;;
50104;SDS011;47690;39.202;-77.198;2023-11-21T00:48:01;2.95;;;2.40;;
50104;SDS011;47690;39.202;-77.198;2023-11-21T00:50:33;2.60;;;2.20;;
50104;SDS011;47690;39.202;-77.198;2023-11-21T00:53:02;2.72;;;2.28;;
50104;SDS011;47690;39.202;-77.198;2023-11-21T00:55:31;3.35;;;2.45;;
50104;SDS011;47690;39.202;-77.198;2023-11-21T00:57:59;2.40;;;2.20;;
50104;SDS011;47690;39.202;-77.198;2023-11-21T01:00:31;3.28;;;2.22;;
50104;SDS011;47690;39.202;-77.198;2023-11-21T01:03:00;2.53;;;2.10;;
50104;SDS011;47690;39.202;-77.198;2023-11-21T01:05:30;2.50;;;2.13;;
50104;SDS011;47690;39.202;-77.198;2023-11-21T01:10:54;2.72;;;2.25;;
50104;SDS011;47690;39.202;-77.198;2023-11-21T01:13:23;3.67;;;2.20;;
50104;SDS011;47690;39.202;-77.198;2023-11-21T01:15:57;2.40;;;2.20;;
50104;SDS011;47690;39.202;-77.198;2023-11-21T01:18:25;2.95;;;2.20;;
50104;SDS011;47690;39.202;-77.198;2023-11-21T01:20:54;2.60;;;2.30;;
50104;SDS011;47690;39.202;-77.198;2023-11-21T01:23:23;2.65;;;2.20;;
50104;SDS011;47690;39.202;-77.198;2023-11-21T01:25:52;2.70;;;2.25;;
50104;SDS011;47690;39.202;-77.198;2023-11-21T01:28:25;2.75;;;2.17;;
50104;SDS011;47690;39.202;-77.198;2023-11-21T01:30:54;3.35;;;2.25;;
50104;SDS011;47690;39.202;-77.198;2023-11-21T01:33:24;2.72;;;2.08;;
50104;SDS011;47690;39.202;-77.198;2023-11-21T01:35:53;2.70;;;2.20;;
50104;SDS011;47690;39.202;-77.198;2023-11-21T01:38:23;2.90;;;2.45;;
50104;SDS011;47690;39.202;-77.198;2023-11-21T01:40:51;3.60;;;2.45;;
50104;SDS011;47690;39.202;-77.198;2023-11-21T01:43:20;4.75;;;2.50;;
50104;SDS011;47690;39.202;-77.198;2023-11-21T01:45:49;3.55;;;2.30;;
50104;SDS011;47690;39.202;-77.198;2023-11-21T01:48:19;2.83;;;2.30;;
50104;SDS011;47690;39.202;-77.198;2023-11-21T01:50:56;2.63;;;2.25;;
50104;SDS011;47690;39.202;-77.198;2023-11-21T01:53:25;4.68;;;2.10;;
50104;SDS011;47690;39.202;-77.198;2023-11-21T01:56:00;3.35;;;2.30;;
50104;SDS011;47690;39.202;-77.198;2023-11-21T01:58:30;5.22;;;2.25;;
50104;SDS011;47690;39.202;-77.198;2023-11-21T02:01:00;2.35;;;2.10;;
50104;SDS011;47690;39.202;-77.198;2023-11-21T02:03:28;4.25;;;2.20;;
50104;SDS011;47690;39.202;-77.198;2023-11-21T02:05:57;2.47;;;2.10;;
50104;SDS011;47690;39.202;-77.198;2023-11-21T02:08:26;2.97;;;2.10;;
50104;SDS011;47690;39.202;-77.198;2023-11-21T02:10:55;2.15;;;1.85;;
50104;SDS011;47690;39.202;-77.198;2023-11-21T02:13:26;2.67;;;2.08;;
50104;SDS011;47690;39.202;-77.198;2023-11-21T02:15:55;2.25;;;2.05;;
50104;SDS011;47690;39.202;-77.198;2023-11-21T02:18:26;2.55;;;2.13;;
50104;SDS011;47690;39.202;-77.198;2023-11-21T02:20:57;4.35;;;2.22;;
50104;SDS011;47690;39.202;-77.198;2023-11-21T02:23:26;3.63;;;2.42;;
50104;SDS011;47690;39.202;-77.198;2023-11-21T02:25:57;2.92;;;2.20;;
50104;SDS011;47690;39.202;-77.198;2023-11-21T02:28:26;2.53;;;2.20;;
50104;SDS011;47690;39.202;-77.198;2023-11-21T02:30:54;5.82;;;2.53;;
50104;SDS011;47690;39.202;-77.198;2023-11-21T02:33:26;4.20;;;2.30;;
50104;SDS011;47690;39.202;-77.198;2023-11-21T02:35:56;2.97;;;2.42;;
50104;SDS011;47690;39.202;-77.198;2023-11-21T02:38:24;3.10;;;2.63;;
50104;SDS011;47690;39.202;-77.198;2023-11-21T02:40:53;2.85;;;2.40;;
50104;SDS011;47690;39.202;-77.198;2023-11-21T02:43:22;3.17;;;2.35;;
50104;SDS011;47690;39.202;-77.198;2023-11-21T02:45:51;3.55;;;2.30;;
50104;SDS011;47690;39.202;-77.198;2023-11-21T02:48:20;3.83;;;2.42;;
50104;SDS011;47690;39.202;-77.198;2023-11-21T02:50:52;3.40;;;2.50;;
50104;SDS011;47690;39.202;-77.198;2023-11-21T02:53:22;4.10;;;2.22;;
50104;SDS011;47690;39.202;-77.198;2023-11-21T02:55:52;2.60;;;2.20;;
50104;SDS011;47690;39.202;-77.198;2023-11-21T02:58:21;2.72;;;2.33;;
50104;SDS011;47690;39.202;-77.198;2023-11-21T03:00:49;3.25;;;2.53;;
50104;SDS011;47690;39.202;-77.198;2023-11-21T03:03:19;2.50;;;2.28;;
50104;SDS011;47690;39.202;-77.198;2023-11-21T03:05:47;2.72;;;2.20;;
50104;SDS011;47690;39.202;-77.198;2023-11-21T03:08:16;3.65;;;2.47;;
50104;SDS011;47690;39.202;-77.198;2023-11-21T03:10:44;3.30;;;2.20;;
50104;SDS011;47690;39.202;-77.198;2023-11-21T03:13:13;4.43;;;2.50;;
50104;SDS011;47690;39.202;-77.198;2023-11-21T03:15:42;2.47;;;2.28;;
50104;SDS011;47690;39.202;-77.198;2023-11-21T03:18:10;3.78;;;2.22;;
50104;SDS011;47690;39.202;-77.198;2023-11-21T03:20:39;4.00;;;2.30;;
50104;SDS011;47690;39.202;-77.198;2023-11-21T03:23:07;2.38;;;2.17;;
50104;SDS011;47690;39.202;-77.198;2023-11-21T03:25:36;2.83;;;2.50;;
50104;SDS011;47690;39.202;-77.198;2023-11-21T03:28:05;2.50;;;2.08;;
50104;SDS011;47690;39.202;-77.198;2023-11-21T03:30:36;2.90;;;2.40;;
50104;SDS011;47690;39.202;-77.198;2023-11-21T03:33:05;4.72;;;2.35;;
50104;SDS011;47690;39.202;-77.198;2023-11-21T03:35:33;5.40;;;2.30;;
50104;SDS011;47690;39.202;-77.198;2023-11-21T03:38:01;5.35;;;3.10;;
50104;SDS011;47690;39.202;-77.198;2023-11-21T03:40:30;3.85;;;2.90;;
50104;SDS011;47690;39.202;-77.198;2023-11-21T03:43:01;4.30;;;2.65;;
50104;SDS011;47690;39.202;-77.198;2023-11-21T03:45:30;4.38;;;2.60;;
50104;SDS011;47690;39.202;-77.198;2023-11-21T03:47:58;3.50;;;2.47;;
50104;SDS011;47690;39.202;-77.198;2023-11-21T03:50:29;3.15;;;2.30;;
50104;SDS011;47690;39.202;-77.198;2023-11-21T03:52:59;4.72;;;2.72;;
50104;SDS011;47690;39.202;-77.198;2023-11-21T03:55:30;4.45;;;2.90;;
50104;SDS011;47690;39.202;-77.198;2023-11-21T03:57:59;4.43;;;2.78;;
50104;SDS011;47690;39.202;-77.198;2023-11-21T04:00:27;3.33;;;2.40;;
50104;SDS011;47690;39.202;-77.198;2023-11-21T04:02:57;4.65;;;2.63;;
50104;SDS011;47690;39.202;-77.198;2023-11-21T04:05:27;2.90;;;2.50;;
50104;SDS011;47690;39.202;-77.198;2023-11-21T04:07:56;2.83;;;2.20;;
50104;SDS011;47690;39.202;-77.198;2023-11-21T04:10:24;3.60;;;2.65;;
50104;SDS011;47690;39.202;-77.198;2023-11-21T04:12:54;4.13;;;2.60;;
50104;SDS011;47690;39.202;-77.198;2023-11-21T04:15:24;3.20;;;2.47;;
50104;SDS011;47690;39.202;-77.198;2023-11-21T04:17:54;3.15;;;2.65;;
50104;SDS011;47690;39.202;-77.198;2023-11-21T04:20:24;3.53;;;2.60;;
50104;SDS011;47690;39.202;-77.198;2023-11-21T04:22:54;3.05;;;2.50;;
50104;SDS011;47690;39.202;-77.198;2023-11-21T04:25:22;3.13;;;2.30;;
50104;SDS011;47690;39.202;-77.198;2023-11-21T04:27:52;2.67;;;2.30;;
50104;SDS011;47690;39.202;-77.198;2023-11-21T04:30:23;3.10;;;2.67;;
50104;SDS011;47690;39.202;-77.198;2023-11-21T04:32:52;3.60;;;2.55;;
50104;SDS011;47690;39.202;-77.198;2023-11-21T04:35:21;4.32;;;2.40;;
50104;SDS011;47690;39.202;-77.198;2023-11-21T04:37:50;4.35;;;2.47;;
50104;SDS011;47690;39.202;-77.198;2023-11-21T04:40:18;3.17;;;2.50;;
50104;SDS011;47690;39.202;-77.198;2023-11-21T04:42:49;2.78;;;2.47;;
50104;SDS011;47690;39.202;-77.198;2023-11-21T04:45:17;3.42;;;2.60;;
50104;SDS011;47690;39.202;-77.198;2023-11-21T04:47:45;4.22;;;2.58;;
50104;SDS011;47690;39.202;-77.198;2023-11-21T04:50:13;3.42;;;2.72;;
50104;SDS011;47690;39.202;-77.198;2023-11-21T04:52:42;2.83;;;2.45;;
50104;SDS011;47690;39.202;-77.198;2023-11-21T04:55:10;3.28;;;2.60;;
50104;SDS011;47690;39.202;-77.198;2023-11-21T04:57:39;5.03;;;2.60;;
50104;SDS011;47690;39.202;-77.198;2023-11-21T05:00:11;3.50;;;2.65;;
50104;SDS011;47690;39.202;-77.198;2023-11-21T05:02:40;3.28;;;2.63;;
50104;SDS011;47690;39.202;-77.198;2023-11-21T05:05:09;2.97;;;2.47;;
50104;SDS011;47690;39.202;-77.198;2023-11-21T05:07:38;3.80;;;2.90;;
50104;SDS011;47690;39.202;-77.198;2023-11-21T05:10:11;2.72;;;2.40;;
50104;SDS011;47690;39.202;-77.198;2023-11-21T05:12:43;3.10;;;2.45;;
50104;SDS011;47690;39.202;-77.198;2023-11-21T05:15:14;3.90;;;2.72;;
50104;SDS011;47690;39.202;-77.198;2023-11-21T05:17:45;4.18;;;2.60;;
50104;SDS011;47690;39.202;-77.198;2023-11-21T05:20:15;3.85;;;2.75;;
50104;SDS011;47690;39.202;-77.198;2023-11-21T05:22:49;3.83;;;2.72;;
50104;SDS011;47690;39.202;-77.198;2023-11-21T05:25:17;3.30;;;2.75;;
50104;SDS011;47690;39.202;-77.198;2023-11-21T05:27:46;4.25;;;2.70;;
50104;SDS011;47690;39.202;-77.198;2023-11-21T05:30:15;3.40;;;2.67;;
50104;SDS011;47690;39.202;-77.198;2023-11-21T05:32:43;3.15;;;2.40;;
50104;SDS011;47690;39.202;-77.198;2023-11-21T05:35:12;3.08;;;2.55;;
50104;SDS011;47690;39.202;-77.198;2023-11-21T05:37:45;2.83;;;2.40;;
50104;SDS011;47690;39.202;-77.198;2023-11-21T05:40:14;4.90;;;2.70;;
50104;SDS011;47690;39.202;-77.198;2023-11-21T05:42:43;3.72;;;2.40;;
50104;SDS011;47690;39.202;-77.198;2023-11-21T05:45:14;3.47;;;2.60;;
50104;SDS011;47690;39.202;-77.198;2023-11-21T05:47:43;3.30;;;2.50;;
50104;SDS011;47690;39.202;-77.198;2023-11-21T05:50:16;4.05;;;2.70;;
50104;SDS011;47690;39.202;-77.198;2023-11-21T05:52:46;4.38;;;2.70;;
50104;SDS011;47690;39.202;-77.198;2023-11-21T05:55:16;2.95;;;2.35;;
50104;SDS011;47690;39.202;-77.198;2023-11-21T05:57:45;4.90;;;2.45;;
50104;SDS011;47690;39.202;-77.198;2023-11-21T06:00:14;3.03;;;2.47;;
50104;SDS011;47690;39.202;-77.198;2023-11-21T06:02:55;2.92;;;2.40;;
50104;SDS011;47690;39.202;-77.198;2023-11-21T06:05:28;3.15;;;2.42;;
50104;SDS011;47690;39.202;-77.198;2023-11-21T06:07:59;3.70;;;2.77;;
50104;SDS011;47690;39.202;-77.198;2023-11-21T06:10:28;3.13;;;2.50;;
50104;SDS011;47690;39.202;-77.198;2023-11-21T06:12:57;3.78;;;2.45;;
50104;SDS011;47690;39.202;-77.198;2023-11-21T06:15:30;2.83;;;2.30;;
50104;SDS011;47690;39.202;-77.198;2023-11-21T06:17:58;2.80;;;2.30;;
50104;SDS011;47690;39.202;-77.198;2023-11-21T06:20:28;3.97;;;2.58;;
50104;SDS011;47690;39.202;-77.198;2023-11-21T06:22:57;3.42;;;2.60;;
50104;SDS011;47690;39.202;-77.198;2023-11-21T06:25:26;3.15;;;2.53;;
50104;SDS011;47690;39.202;-77.198;2023-11-21T06:27:56;3.63;;;2.55;;
50104;SDS011;47690;39.202;-77.198;2023-11-21T06:30:24;3.28;;;2.47;;
50104;SDS011;47690;39.202;-77.198;2023-11-21T06:32:53;4.68;;;2.85;;
50104;SDS011;47690;39.202;-77.198;2023-11-21T06:35:24;4.13;;;2.65;;
50104;SDS011;47690;39.202;-77.198;2023-11-21T06:37:54;4.07;;;2.85;;
50104;SDS011;47690;39.202;-77.198;2023-11-21T06:40:24;3.95;;;2.53;;
50104;SDS011;47690;39.202;-77.198;2023-11-21T06:42:54;4.25;;;2.92;;
50104;SDS011;47690;39.202;-77.198;2023-11-21T06:45:24;4.05;;;2.92;;
50104;SDS011;47690;39.202;-77.198;2023-11-21T06:47:53;3.70;;;2.70;;
50104;SDS011;47690;39.202;-77.198;2023-11-21T06:50:23;4.68;;;2.80;;
50104;SDS011;47690;39.202;-77.198;2023-11-21T06:52:52;3.25;;;2.67;;
50104;SDS011;47690;39.202;-77.198;2023-11-21T06:55:22;3.65;;;2.40;;
50104;SDS011;47690;39.202;-77.198;2023-11-21T06:57:52;3.78;;;2.65;;
50104;SDS011;47690;39.202;-77.198;2023-11-21T07:00:22;5.47;;;2.60;;
50104;SDS011;47690;39.202;-77.198;2023-11-21T07:02:53;3.72;;;2.63;;
50104;SDS011;47690;39.202;-77.198;2023-11-21T07:05:22;3.25;;;2.70;;
50104;SDS011;47690;39.202;-77.198;2023-11-21T07:07:53;3.58;;;2.58;;
50104;SDS011;47690;39.202;-77.198;2023-11-21T07:10:23;3.05;;;2.70;;
50104;SDS011;47690;39.202;-77.198;2023-11-21T07:12:53;3.88;;;3.00;;
50104;SDS011;47690;39.202;-77.198;2023-11-21T07:15:22;3.50;;;3.00;;
50104;SDS011;47690;39.202;-77.198;2023-11-21T07:17:52;3.28;;;2.53;;
50104;SDS011;47690;39.202;-77.198;2023-11-21T07:20:22;3.95;;;2.85;;
50104;SDS011;47690;39.202;-77.198;2023-11-21T07:22:52;3.00;;;2.55;;
50104;SDS011;47690;39.202;-77.198;2023-11-21T07:25:21;3.75;;;2.78;;
50104;SDS011;47690;39.202;-77.198;2023-11-21T07:27:49;3.33;;;2.65;;
50104;SDS011;47690;39.202;-77.198;2023-11-21T07:30:18;4.65;;;2.83;;
50104;SDS011;47690;39.202;-77.198;2023-11-21T07:32:47;3.20;;;2.65;;
50104;SDS011;47690;39.202;-77.198;2023-11-21T07:35:16;3.08;;;2.72;;
50104;SDS011;47690;39.202;-77.198;2023-11-21T07:37:45;3.97;;;2.75;;
50104;SDS011;47690;39.202;-77.198;2023-11-21T07:40:15;3.47;;;2.58;;
50104;SDS011;47690;39.202;-77.198;2023-11-21T07:42:44;2.75;;;2.42;;
50104;SDS011;47690;39.202;-77.198;2023-11-21T07:45:17;4.00;;;2.83;;
50104;SDS011;47690;39.202;-77.198;2023-11-21T07:47:45;3.03;;;2.50;;
50104;SDS011;47690;39.202;-77.198;2023-11-21T07:50:13;2.92;;;2.33;;
50104;SDS011;47690;39.202;-77.198;2023-11-21T07:52:42;3.10;;;2.58;;
50104;SDS011;47690;39.202;-77.198;2023-11-21T07:55:11;3.78;;;2.80;;
50104;SDS011;47690;39.202;-77.198;2023-11-21T07:57:40;3.60;;;2.65;;
50104;SDS011;47690;39.202;-77.198;2023-11-21T08:00:09;4.57;;;2.60;;
50104;SDS011;47690;39.202;-77.198;2023-11-21T08:02:40;4.32;;;2.83;;
50104;SDS011;47690;39.202;-77.198;2023-11-21T08:05:10;3.92;;;2.50;;
50104;SDS011;47690;39.202;-77.198;2023-11-21T08:07:52;3.30;;;2.63;;
50104;SDS011;47690;39.202;-77.198;2023-11-21T08:10:23;3.95;;;2.80;;
50104;SDS011;47690;39.202;-77.198;2023-11-21T08:12:53;3.47;;;2.55;;
50104;SDS011;47690;39.202;-77.198;2023-11-21T08:15:22;3.72;;;2.70;;
50104;SDS011;47690;39.202;-77.198;2023-11-21T08:17:51;3.72;;;2.60;;
50104;SDS011;47690;39.202;-77.198;2023-11-21T08:20:20;3.45;;;2.72;;
50104;SDS011;47690;39.202;-77.198;2023-11-21T08:22:51;2.42;;;2.22;;
50104;SDS011;47690;39.202;-77.198;2023-11-21T08:25:21;2.40;;;2.20;;
50104;SDS011;47690;39.202;-77.198;2023-11-21T08:27:49;3.17;;;2.70;;
50104;SDS011;47690;39.202;-77.198;2023-11-21T08:30:20;3.58;;;2.60;;
50104;SDS011;47690;39.202;-77.198;2023-11-21T08:32:57;3.17;;;2.67;;
50104;SDS011;47690;39.202;-77.198;2023-11-21T08:35:26;4.25;;;2.70;;
50104;SDS011;47690;39.202;-77.198;2023-11-21T08:37:56;4.22;;;2.60;;
50104;SDS011;47690;39.202;-77.198;2023-11-21T08:40:25;2.95;;;2.40;;
50104;SDS011;47690;39.202;-77.198;2023-11-21T08:42:55;3.88;;;2.78;;
50104;SDS011;47690;39.202;-77.198;2023-11-21T08:45:27;2.83;;;2.50;;
50104;SDS011;47690;39.202;-77.198;2023-11-21T08:47:56;2.70;;;2.40;;
50104;SDS011;47690;39.202;-77.198;2023-11-21T08:50:25;3.13;;;2.22;;
50104;SDS011;47690;39.202;-77.198;2023-11-21T08:52:54;2.88;;;2.40;;
50104;SDS011;47690;39.202;-77.198;2023-11-21T08:55:24;3.10;;;2.70;;
50104;SDS011;47690;39.202;-77.198;2023-11-21T08:57:53;3.50;;;2.38;;
50104;SDS011;47690;39.202;-77.198;2023-11-21T09:00:24;3.95;;;2.63;;
50104;SDS011;47690;39.202;-77.198;2023-11-21T09:02:54;3.42;;;2.55;;
50104;SDS011;47690;39.202;-77.198;2023-11-21T09:05:23;3.38;;;2.63;;
50104;SDS011;47690;39.202;-77.198;2023-11-21T09:07:53;3.40;;;2.40;;
50104;SDS011;47690;39.202;-77.198;2023-11-21T09:10:22;4.93;;;2.55;;
50104;SDS011;47690;39.202;-77.198;2023-11-21T09:12:54;3.70;;;2.45;;
50104;SDS011;47690;39.202;-77.198;2023-11-21T09:15:23;3.22;;;2.55;;
50104;SDS011;47690;39.202;-77.198;2023-11-21T09:17:58;3.40;;;2.45;;
50104;SDS011;47690;39.202;-77.198;2023-11-21T09:20:26;3.80;;;2.50;;
50104;SDS011;47690;39.202;-77.198;2023-11-21T09:22:56;2.78;;;2.42;;
50104;SDS011;47690;39.202;-77.198;2023-11-21T09:25:25;2.88;;;2.20;;
50104;SDS011;47690;39.202;-77.198;2023-11-21T09:27:56;3.88;;;2.78;;
50104;SDS011;47690;39.202;-77.198;2023-11-21T09:30:26;3.88;;;2.70;;
50104;SDS011;47690;39.202;-77.198;2023-11-21T09:32:54;3.92;;;2.53;;
50104;SDS011;47690;39.202;-77.198;2023-11-21T09:35:26;3.47;;;2.72;;
50104;SDS011;47690;39.202;-77.198;2023-11-21T09:37:56;2.42;;;2.22;;
50104;SDS011;47690;39.202;-77.198;2023-11-21T09:40:25;3.70;;;2.33;;
50104;SDS011;47690;39.202;-77.198;2023-11-21T09:42:55;2.70;;;2.25;;
50104;SDS011;47690;39.202;-77.198;2023-11-21T09:45:27;2.58;;;2.22;;
50104;SDS011;47690;39.202;-77.198;2023-11-21T09:47:57;2.85;;;2.47;;
50104;SDS011;47690;39.202;-77.198;2023-11-21T09:50:27;2.90;;;2.60;;
50104;SDS011;47690;39.202;-77.198;2023-11-21T09:53:13;3.30;;;2.15;;
50104;SDS011;47690;39.202;-77.198;2023-11-21T09:55:54;3.03;;;2.40;;
50104;SDS011;47690;39.202;-77.198;2023-11-21T09:58:24;2.90;;;2.33;;
50104;SDS011;47690;39.202;-77.198;2023-11-21T10:00:55;4.43;;;2.25;;
50104;SDS011;47690;39.202;-77.198;2023-11-21T10:03:28;2.97;;;2.30;;
50104;SDS011;47690;39.202;-77.198;2023-11-21T10:05:57;3.30;;;2.40;;
50104;SDS011;47690;39.202;-77.198;2023-11-21T10:08:29;2.30;;;2.10;;
50104;SDS011;47690;39.202;-77.198;2023-11-21T10:11:16;2.42;;;2.20;;
50104;SDS011;47690;39.202;-77.198;2023-11-21T10:13:47;2.83;;;2.20;;
50104;SDS011;47690;39.202;-77.198;2023-11-21T10:18:54;2.10;;;1.90;;
50104;SDS011;47690;39.202;-77.198;2023-11-21T10:21:38;2.63;;;1.85;;
50104;SDS011;47690;39.202;-77.198;2023-11-21T10:24:07;2.35;;;2.05;;
50104;SDS011;47690;39.202;-77.198;2023-11-21T10:26:36;2.78;;;2.00;;
50104;SDS011;47690;39.202;-77.198;2023-11-21T10:29:19;2.78;;;2.03;;
50104;SDS011;47690;39.202;-77.198;2023-11-21T10:31:50;2.75;;;2.03;;
50104;SDS011;47690;39.202;-77.198;2023-11-21T10:34:20;2.20;;;2.00;;
50104;SDS011;47690;39.202;-77.198;2023-11-21T10:36:49;2.72;;;2.10;;
50104;SDS011;47690;39.202;-77.198;2023-11-21T10:39:21;2.70;;;2.20;;
50104;SDS011;47690;39.202;-77.198;2023-11-21T10:41:52;1.92;;;1.77;;
50104;SDS011;47690;39.202;-77.198;2023-11-21T10:44:23;3.08;;;2.17;;
50104;SDS011;47690;39.202;-77.198;2023-11-21T10:46:53;2.45;;;2.05;;
50104;SDS011;47690;39.202;-77.198;2023-11-21T10:49:26;2.15;;;1.90;;
50104;SDS011;47690;39.202;-77.198;2023-11-21T10:51:56;2.55;;;2.00;;
50104;SDS011;47690;39.202;-77.198;2023-11-21T10:54:25;2.42;;;2.08;;
50104;SDS011;47690;39.202;-77.198;2023-11-21T10:56:58;4.38;;;1.88;;
50104;SDS011;47690;39.202;-77.198;2023-11-21T10:59:29;2.20;;;1.88;;
50104;SDS011;47690;39.202;-77.198;2023-11-21T11:02:00;2.00;;;1.70;;
50104;SDS011;47690;39.202;-77.198;2023-11-21T11:04:32;2.22;;;1.90;;
50104;SDS011;47690;39.202;-77.198;2023-11-21T11:07:06;1.90;;;1.70;;
50104;SDS011;47690;39.202;-77.198;2023-11-21T11:09:40;2.67;;;1.70;;
50104;SDS011;47690;39.202;-77.198;2023-11-21T11:12:08;1.75;;;1.60;;
50104;SDS011;47690;39.202;-77.198;2023-11-21T11:14:40;2.60;;;1.90;;
50104;SDS011;47690;39.202;-77.198;2023-11-21T11:17:12;2.05;;;1.90;;
50104;SDS011;47690;39.202;-77.198;2023-11-21T11:19:43;1.83;;;1.50;;
50104;SDS011;47690;39.202;-77.198;2023-11-21T11:28:08;1.77;;;1.67;;
50104;SDS011;47690;39.202;-77.198;2023-11-21T11:30:47;1.75;;;1.65;;
50104;SDS011;47690;39.202;-77.198;2023-11-21T11:38:46;1.80;;;1.70;;
50104;SDS011;47690;39.202;-77.198;2023-11-21T11:41:28;2.05;;;1.73;;
50104;SDS011;47690;39.202;-77.198;2023-11-21T11:44:00;2.67;;;1.70;;
50104;SDS011;47690;39.202;-77.198;2023-11-21T11:46:42;1.63;;;1.52;;
50104;SDS011;47690;39.202;-77.198;2023-11-21T11:49:24;1.95;;;1.75;;
50104;SDS011;47690;39.202;-77.198;2023-11-21T11:53:11;1.92;;;1.73;;
50104;SDS011;47690;39.202;-77.198;2023-11-21T11:55:15;1.70;;;1.60;;
50104;SDS011;47690;39.202;-77.198;2023-11-21T11:57:56;2.25;;;1.55;;
50104;SDS011;47690;39.202;-77.198;2023-11-21T12:02:59;2.03;;;1.83;;
50104;SDS011;47690;39.202;-77.198;2023-11-21T12:05:31;1.80;;;1.52;;
50104;SDS011;47690;39.202;-77.198;2023-11-21T12:08:03;1.70;;;1.60;;
50104;SDS011;47690;39.202;-77.198;2023-11-21T12:10:34;2.80;;;2.00;;
50104;SDS011;47690;39.202;-77.198;2023-11-21T12:13:08;2.03;;;1.65;;
50104;SDS011;47690;39.202;-77.198;2023-11-21T12:15:38;2.42;;;1.70;;
50104;SDS011;47690;39.202;-77.198;2023-11-21T12:18:10;1.40;;;1.30;;
50104;SDS011;47690;39.202;-77.198;2023-11-21T12:20:38;1.92;;;1.73;;
50104;SDS011;47690;39.202;-77.198;2023-11-21T12:23:08;2.92;;;1.63;;
50104;SDS011;47690;39.202;-77.198;2023-11-21T12:25:39;1.90;;;1.75;;
50104;SDS011;47690;39.202;-77.198;2023-11-21T12:28:09;1.90;;;1.70;;
50104;SDS011;47690;39.202;-77.198;2023-11-21T12:30:40;1.60;;;1.50;;
50104;SDS011;47690;39.202;-77.198;2023-11-21T12:33:09;1.40;;;1.30;;
50104;SDS011;47690;39.202;-77.198;2023-11-21T12:35:38;2.17;;;1.83;;
50104;SDS011;47690;39.202;-77.198;2023-11-21T12:38:06;2.25;;;1.70;;
50104;SDS011;47690;39.202;-77.198;2023-11-21T12:40:37;2.25;;;1.88;;
50104;SDS011;47690;39.202;-77.198;2023-11-21T12:43:06;1.65;;;1.55;;
50104;SDS011;47690;39.202;-77.198;2023-11-21T12:45:38;2.00;;;1.80;;
50104;SDS011;47690;39.202;-77.198;2023-11-21T12:48:06;1.50;;;1.40;;
50104;SDS011;47690;39.202;-77.198;2023-11-21T12:50:37;2.15;;;1.88;;
50104;SDS011;47690;39.202;-77.198;2023-11-21T12:53:08;2.20;;;1.80;;
50104;SDS011;47690;39.202;-77.198;2023-11-21T12:55:40;2.00;;;1.80;;
50104;SDS011;47690;39.202;-77.198;2023-11-21T12:58:10;1.98;;;1.70;;
50104;SDS011;47690;39.202;-77.198;2023-11-21T13:00:43;2.25;;;1.90;;
50104;SDS011;47690;39.202;-77.198;2023-11-21T13:03:14;2.05;;;1.70;;
50104;SDS011;47690;39.202;-77.198;2023-11-21T13:05:46;4.38;;;1.73;;
50104;SDS011;47690;39.202;-77.198;2023-11-21T13:08:20;2.92;;;2.10;;
50104;SDS011;47690;39.202;-77.198;2023-11-21T13:10:53;3.65;;;1.63;;
50104;SDS011;47690;39.202;-77.198;2023-11-21T13:13:28;1.90;;;1.77;;
50104;SDS011;47690;39.202;-77.198;2023-11-21T13:15:59;1.92;;;1.80;;
50104;SDS011;47690;39.202;-77.198;2023-11-21T13:18:29;2.33;;;1.73;;
50104;SDS011;47690;39.202;-77.198;2023-11-21T13:21:02;2.00;;;1.80;;
50104;SDS011;47690;39.202;-77.198;2023-11-21T13:23:37;1.98;;;1.67;;
50104;SDS011;47690;39.202;-77.198;2023-11-21T13:26:06;7.05;;;1.90;;
50104;SDS011;47690;39.202;-77.198;2023-11-21T13:28:36;2.10;;;1.90;;
50104;SDS011;47690;39.202;-77.198;2023-11-21T13:31:05;1.88;;;1.75;;
50104;SDS011;47690;39.202;-77.198;2023-11-21T13:33:43;2.17;;;1.88;;
50104;SDS011;47690;39.202;-77.198;2023-11-21T13:36:17;2.20;;;1.80;;
50104;SDS011;47690;39.202;-77.198;2023-11-21T13:38:50;3.50;;;1.90;;
50104;SDS011;47690;39.202;-77.198;2023-11-21T13:41:23;1.88;;;1.77;;
50104;SDS011;47690;39.202;-77.198;2023-11-21T13:43:59;2.88;;;1.95;;
50104;SDS011;47690;39.202;-77.198;2023-11-21T13:47:00;1.90;;;1.70;;
50104;SDS011;47690;39.202;-77.198;2023-11-21T13:49:28;2.08;;;1.70;;
50104;SDS011;47690;39.202;-77.198;2023-11-21T13:52:05;2.78;;;2.00;;
50104;SDS011;47690;39.202;-77.198;2023-11-21T13:54:35;3.15;;;2.30;;
50104;SDS011;47690;39.202;-77.198;2023-11-21T13:57:03;2.17;;;1.98;;
50104;SDS011;47690;39.202;-77.198;2023-11-21T13:59:33;2.45;;;2.00;;
50104;SDS011;47690;39.202;-77.198;2023-11-21T14:02:01;3.17;;;2.15;;
50104;SDS011;47690;39.202;-77.198;2023-11-21T14:04:45;4.18;;;1.88;;
50104;SDS011;47690;39.202;-77.198;2023-11-21T14:07:24;2.00;;;1.80;;
50104;SDS011;47690;39.202;-77.198;2023-11-21T14:10:05;2.17;;;1.80;;
50104;SDS011;47690;39.202;-77.198;2023-11-21T14:12:42;2.10;;;1.90;;
50104;SDS011;47690;39.202;-77.198;2023-11-21T14:15:13;2.90;;;1.90;;
50104;SDS011;47690;39.202;-77.198;2023-11-21T14:17:46;3.75;;;1.90;;
50104;SDS011;47690;39.202;-77.198;2023-11-21T14:20:17;2.60;;;1.70;;
50104;SDS011;47690;39.202;-77.198;2023-11-21T14:22:48;3.08;;;2.17;;
50104;SDS011;47690;39.202;-77.198;2023-11-21T14:25:17;2.58;;;2.13;;
50104;SDS011;47690;39.202;-77.198;2023-11-21T14:27:45;2.17;;;1.98;;
50104;SDS011;47690;39.202;-77.198;2023-11-21T14:30:14;2.38;;;1.92;;
50104;SDS011;47690;39.202;-77.198;2023-11-21T14:32:42;2.10;;;1.90;;
50104;SDS011;47690;39.202;-77.198;2023-11-21T14:35:16;2.30;;;2.10;;
50104;SDS011;47690;39.202;-77.198;2023-11-21T14:37:45;2.20;;;2.00;;
50104;SDS011;47690;39.202;-77.198;2023-11-21T14:40:14;2.15;;;1.95;;
50104;SDS011;47690;39.202;-77.198;2023-11-21T14:42:43;2.13;;;1.80;;
50104;SDS011;47690;39.202;-77.198;2023-11-21T14:45:15;4.07;;;2.10;;
50104;SDS011;47690;39.202;-77.198;2023-11-21T14:47:47;3.38;;;1.95;;
50104;SDS011;47690;39.202;-77.198;2023-11-21T14:50:42;2.67;;;1.90;;
50104;SDS011;47690;39.202;-77.198;2023-11-21T14:53:29;3.58;;;2.00;;
50104;SDS011;47690;39.202;-77.198;2023-11-21T14:56:16;2.63;;;2.00;;
50104;SDS011;47690;39.202;-77.198;2023-11-21T14:58:54;2.10;;;1.90;;
50104;SDS011;47690;39.202;-77.198;2023-11-21T15:01:27;3.97;;;2.13;;